Time;durP1;ratioP1;P1;durP2;ratioP2;P2;SDS_P1;SDS_P2;PMS_P1;PMS_P2;Temp;Humidity;BMP_temperature;BMP_pressure;BME280_temperature;BME280_humidity;BME280_pressure;Samples;Min_cycle;Max_cycle;Signal;HPM_P1;HPM_P2
2024/03/20 00:01:30;;;;;;;39.53;20.92;;;;;;;;;;5094596;28;20031;-63
2024/03/20 00:03:56;;;;;;;35.15;19.63;;;;;;;;;;5095568;28;20038;-62
2024/03/20 00:06:21;;;;;;;42.20;21.17;;;;;;;;;;5097266;28;20430;-60
2024/03/20 00:08:46;;;;;;;37.45;19.92;;;;;;;;;;5094698;28;20028;-61
2024/03/20 00:11:12;;;;;;;34.55;19.63;;;;;;;;;;5094671;28;20028;-60
2024/03/20 00:13:37;;;;;;;41.60;21.15;;;;;;;;;;5094477;28;20058;-58
2024/03/20 00:16:03;;;;;;;35.20;20.35;;;;;;;;;;5094986;28;20020;-59
2024/03/20 00:18:30;;;;;;;38.60;20.92;;;;;;;;;;5094682;28;20324;-57
2024/03/20 00:20:55;;;;;;;37.78;20.63;;;;;;;;;;5093608;28;20016;-60
2024/03/20 00:23:22;;;;;;;36.25;21.10;;;;;;;;;;5092756;28;20031;-60
2024/03/20 00:25:47;;;;;;;39.13;20.63;;;;;;;;;;5103128;28;20155;-62
2024/03/20 00:28:13;;;;;;;37.90;20.83;;;;;;;;;;5114617;28;20035;-59
2024/03/20 00:30:38;;;;;;;35.65;20.67;;;;;;;;;;5114226;28;20034;-59
2024/03/20 00:33:04;;;;;;;40.67;20.83;;;;;;;;;;5114599;28;20011;-60
2024/03/20 00:35:33;;;;;;;32.63;21.08;;;;;;;;;;5114004;28;20023;-61
2024/03/20 00:37:58;;;;;;;37.70;20.63;;;;;;;;;;5107064;28;20027;-63
2024/03/20 00:40:24;;;;;;;36.28;20.50;;;;;;;;;;5094339;28;20023;-62
2024/03/20 00:42:49;;;;;;;44.55;20.52;;;;;;;;;;5094256;28;20020;-61
2024/03/20 00:45:15;;;;;;;36.72;20.70;;;;;;;;;;5094114;28;20024;-60
2024/03/20 00:47:40;;;;;;;43.20;20.55;;;;;;;;;;5101923;28;20019;-60
2024/03/20 00:50:06;;;;;;;39.40;20.60;;;;;;;;;;5114236;28;20035;-60
2024/03/20 00:52:31;;;;;;;36.88;21.05;;;;;;;;;;5111342;28;20122;-58
2024/03/20 00:54:57;;;;;;;38.50;20.67;;;;;;;;;;5094499;28;20035;-62
2024/03/20 00:57:22;;;;;;;36.25;20.35;;;;;;;;;;5092992;28;20031;-62
2024/03/20 00:59:47;;;;;;;40.72;20.50;;;;;;;;;;5092517;28;20457;-60
2024/03/20 01:02:13;;;;;;;37.15;20.25;;;;;;;;;;5109543;28;20039;-60
2024/03/20 01:04:38;;;;;;;33.38;20.98;;;;;;;;;;5113817;28;20026;-62
2024/03/20 01:07:03;;;;;;;40.90;20.67;;;;;;;;;;5114362;28;20388;-61
2024/03/20 01:09:29;;;;;;;39.42;20.48;;;;;;;;;;5096971;28;20111;-62
2024/03/20 01:11:54;;;;;;;40.50;21.42;;;;;;;;;;5112694;28;20039;-63
2024/03/20 01:14:20;;;;;;;42.45;22.35;;;;;;;;;;5114116;27;20407;-63
2024/03/20 01:16:48;;;;;;;39.80;21.25;;;;;;;;;;5102674;28;20069;-62
2024/03/20 01:19:14;;;;;;;40.58;21.60;;;;;;;;;;5093224;28;20051;-60
2024/03/20 01:21:39;;;;;;;42.28;22.67;;;;;;;;;;5093189;28;20450;-63
2024/03/20 01:24:05;;;;;;;44.85;21.77;;;;;;;;;;5091856;28;20362;-62
2024/03/20 01:26:30;;;;;;;37.00;21.15;;;;;;;;;;5093927;28;20107;-61
2024/03/20 01:28:55;;;;;;;37.83;21.73;;;;;;;;;;5093407;28;20028;-62
2024/03/20 01:31:21;;;;;;;41.90;22.63;;;;;;;;;;5093687;28;20032;-63
2024/03/20 01:33:46;;;;;;;36.92;21.08;;;;;;;;;;5108828;28;20027;-62
2024/03/20 01:36:12;;;;;;;37.97;22.52;;;;;;;;;;5113285;28;20051;-61
2024/03/20 01:38:37;;;;;;;45.38;23.88;;;;;;;;;;5101341;28;20020;-63
2024/03/20 01:41:03;;;;;;;41.88;21.80;;;;;;;;;;5093290;28;20519;-62
2024/03/20 01:43:28;;;;;;;38.55;21.80;;;;;;;;;;5092973;28;20020;-62
2024/03/20 01:45:54;;;;;;;39.05;22.30;;;;;;;;;;5092816;28;20038;-63
2024/03/20 01:48:19;;;;;;;41.67;22.67;;;;;;;;;;5100043;28;20026;-62
2024/03/20 01:50:45;;;;;;;39.92;22.70;;;;;;;;;;5111526;28;20032;-63
2024/03/20 01:53:12;;;;;;;39.47;22.60;;;;;;;;;;5100513;28;20060;-63
2024/03/20 01:55:37;;;;;;;37.33;21.77;;;;;;;;;;5107709;28;20023;-62
2024/03/20 01:58:03;;;;;;;39.33;21.30;;;;;;;;;;5109539;28;20032;-62
2024/03/20 02:00:28;;;;;;;40.45;22.05;;;;;;;;;;5093602;28;20016;-61
2024/03/20 02:02:57;;;;;;;40.53;22.45;;;;;;;;;;5092846;28;20034;-63
2024/03/20 02:05:23;;;;;;;46.20;23.33;;;;;;;;;;5092769;28;20099;-63
2024/03/20 02:07:51;;;;;;;39.10;23.10;;;;;;;;;;5092476;28;20106;-62
2024/03/20 02:10:16;;;;;;;44.05;21.48;;;;;;;;;;5092423;28;20078;-62
2024/03/20 02:12:42;;;;;;;37.53;22.02;;;;;;;;;;5092602;28;20351;-62
2024/03/20 02:15:12;;;;;;;45.40;21.65;;;;;;;;;;5093656;28;20423;-60
2024/03/20 02:17:39;;;;;;;41.38;22.20;;;;;;;;;;5112033;28;20024;-64
2024/03/20 02:20:06;;;;;;;39.75;22.13;;;;;;;;;;5091347;28;20028;-69
2024/03/20 02:22:41;;;;;;;43.50;22.40;;;;;;;;;;5091650;28;20020;-62
2024/03/20 02:25:06;;;;;;;;;;;;;;;;;;5097309;28;20039;-63
2024/03/20 02:27:32;;;;;;;47.67;22.10;;;;;;;;;;5094476;28;20233;-63
2024/03/20 02:29:57;;;;;;;43.85;23.42;;;;;;;;;;5112300;28;20555;-62
2024/03/20 02:32:22;;;;;;;44.53;24.20;;;;;;;;;;5111431;28;20080;-63
2024/03/20 02:34:48;;;;;;;40.28;21.95;;;;;;;;;;5112956;28;20019;-63
2024/03/20 02:37:13;;;;;;;48.28;22.70;;;;;;;;;;5112528;28;20147;-62
2024/03/20 02:39:38;;;;;;;43.58;21.67;;;;;;;;;;5091706;28;20035;-62
2024/03/20 02:42:04;;;;;;;41.65;22.38;;;;;;;;;;5094073;28;20020;-64
2024/03/20 02:44:29;;;;;;;43.50;22.33;;;;;;;;;;5092398;28;20016;-62
2024/03/20 02:46:55;;;;;;;49.42;22.75;;;;;;;;;;5096434;28;20034;-64
2024/03/20 02:49:20;;;;;;;41.03;23.63;;;;;;;;;;5096468;28;20272;-62
2024/03/20 02:51:45;;;;;;;43.28;24.02;;;;;;;;;;5096372;28;20024;-63
2024/03/20 02:54:11;;;;;;;48.30;21.90;;;;;;;;;;5095361;28;20151;-63
2024/03/20 02:56:36;;;;;;;39.65;23.00;;;;;;;;;;5096186;28;20392;-62
2024/03/20 02:59:01;;;;;;;37.90;23.23;;;;;;;;;;5096232;28;20430;-63
2024/03/20 03:01:27;;;;;;;42.38;22.15;;;;;;;;;;5109374;28;20028;-62
2024/03/20 03:03:52;;;;;;;40.58;22.23;;;;;;;;;;5116500;28;20102;-62
2024/03/20 03:06:18;;;;;;;47.17;22.33;;;;;;;;;;5116450;28;20016;-63
2024/03/20 03:08:43;;;;;;;40.25;22.42;;;;;;;;;;5106432;28;20092;-63
2024/03/20 03:11:09;;;;;;;42.00;23.35;;;;;;;;;;5116382;28;20039;-60
2024/03/20 03:13:34;;;;;;;47.20;22.30;;;;;;;;;;5115982;27;20193;-62
2024/03/20 03:16:03;;;;;;;41.53;22.05;;;;;;;;;;5115085;28;20058;-62
2024/03/20 03:18:29;;;;;;;47.08;22.42;;;;;;;;;;5116551;28;20016;-63
2024/03/20 03:20:54;;;;;;;46.00;22.85;;;;;;;;;;5107482;28;20112;-63
2024/03/20 03:23:20;;;;;;;40.90;22.80;;;;;;;;;;5095302;28;20415;-62
2024/03/20 03:25:45;;;;;;;42.00;22.65;;;;;;;;;;5095893;28;20079;-61
2024/03/20 03:28:11;;;;;;;42.05;22.90;;;;;;;;;;5095470;28;20331;-62
2024/03/20 03:30:36;;;;;;;42.25;21.50;;;;;;;;;;5114848;28;20032;-63
2024/03/20 03:33:02;;;;;;;39.47;20.92;;;;;;;;;;5115898;27;20020;-63
2024/03/20 03:35:28;;;;;;;50.83;22.58;;;;;;;;;;5115970;28;20341;-59
2024/03/20 03:37:53;;;;;;;44.95;22.30;;;;;;;;;;5110348;28;20441;-60
2024/03/20 03:40:18;;;;;;;43.83;22.08;;;;;;;;;;5094766;28;20020;-62
2024/03/20 03:42:44;;;;;;;39.17;22.17;;;;;;;;;;5097346;28;20028;-62
2024/03/20 03:45:09;;;;;;;42.63;22.40;;;;;;;;;;5094852;28;20024;-62
2024/03/20 03:47:35;;;;;;;43.78;22.25;;;;;;;;;;5095531;28;20024;-63
2024/03/20 03:50:00;;;;;;;43.25;22.73;;;;;;;;;;5115168;28;20449;-62
2024/03/20 03:52:26;;;;;;;41.25;22.15;;;;;;;;;;5113379;28;20058;-61
2024/03/20 03:54:52;;;;;;;44.35;23.02;;;;;;;;;;5095316;28;20430;-63
2024/03/20 03:57:17;;;;;;;39.60;21.50;;;;;;;;;;5095200;28;20153;-63
2024/03/20 03:59:44;;;;;;;43.15;22.35;;;;;;;;;;5095289;28;20356;-64
2024/03/20 04:02:09;;;;;;;40.38;22.50;;;;;;;;;;5094594;28;20021;-62
2024/03/20 04:04:35;;;;;;;41.47;23.02;;;;;;;;;;5094566;28;20104;-63
2024/03/20 04:07:00;;;;;;;43.40;22.33;;;;;;;;;;5095057;28;20024;-63
2024/03/20 04:09:25;;;;;;;40.53;22.67;;;;;;;;;;5094314;28;20397;-63
2024/03/20 04:11:51;;;;;;;48.80;23.70;;;;;;;;;;5094755;28;20120;-64
2024/03/20 04:14:16;;;;;;;43.17;21.95;;;;;;;;;;5094118;28;20396;-63
2024/03/20 04:16:42;;;;;;;40.58;22.58;;;;;;;;;;5094871;28;20020;-63
2024/03/20 04:19:07;;;;;;;36.92;21.90;;;;;;;;;;5093597;28;20016;-63
2024/03/20 04:21:33;;;;;;;38.80;20.88;;;;;;;;;;5095242;28;20039;-64
2024/03/20 04:23:58;;;;;;;39.38;21.05;;;;;;;;;;5093553;28;20027;-62
2024/03/20 04:26:24;;;;;;;34.90;20.17;;;;;;;;;;5094171;28;20016;-63
2024/03/20 04:28:49;;;;;;;36.22;20.33;;;;;;;;;;5094792;28;20031;-62
2024/03/20 04:31:15;;;;;;;36.50;20.98;;;;;;;;;;5106517;28;20039;-63
2024/03/20 04:33:43;;;;;;;40.60;22.67;;;;;;;;;;5114402;28;20020;-63
2024/03/20 04:36:09;;;;;;;34.38;22.00;;;;;;;;;;5114833;28;20039;-65
2024/03/20 04:38:36;;;;;;;39.97;28.95;;;;;;;;;;5102687;28;20051;-63
2024/03/20 04:41:04;;;;;;;40.15;32.95;;;;;;;;;;5094334;28;20385;-62
2024/03/20 04:43:29;;;;;;;1999.90;999.90;;;;;;;;;;5093946;28;20048;-62
2024/03/20 04:45:55;;;;;;;1999.90;999.90;;;;;;;;;;5094030;28;20425;-63
2024/03/20 04:48:20;;;;;;;45.55;38.47;;;;;;;;;;5094250;28;20020;-62
2024/03/20 04:50:46;;;;;;;1999.90;999.90;;;;;;;;;;5093757;28;20028;-62
2024/03/20 04:53:11;;;;;;;41.92;32.70;;;;;;;;;;5093575;28;20048;-61
2024/03/20 04:55:37;;;;;;;37.97;27.20;;;;;;;;;;5094034;28;20032;-63
2024/03/20 04:58:02;;;;;;;38.78;24.92;;;;;;;;;;5093945;28;20312;-63
2024/03/20 05:00:28;;;;;;;31.77;23.25;;;;;;;;;;5102575;28;20024;-62
2024/03/20 05:02:53;;;;;;;38.17;25.55;;;;;;;;;;5114214;28;20465;-62
2024/03/20 05:05:18;;;;;;;34.13;22.88;;;;;;;;;;5106954;28;20023;-63
2024/03/20 05:07:44;;;;;;;32.15;21.00;;;;;;;;;;5093708;28;20095;-62
2024/03/20 05:10:09;;;;;;;31.90;19.50;;;;;;;;;;5093344;28;20020;-64
2024/03/20 05:12:35;;;;;;;27.58;19.52;;;;;;;;;;5093855;28;20454;-63
2024/03/20 05:15:00;;;;;;;37.72;20.55;;;;;;;;;;5093700;28;20168;-61
2024/03/20 05:17:26;;;;;;;36.78;19.08;;;;;;;;;;5093817;28;20027;-63
2024/03/20 05:19:51;;;;;;;34.95;19.95;;;;;;;;;;5093924;28;20103;-64
2024/03/20 05:22:16;;;;;;;31.23;20.10;;;;;;;;;;5092881;28;20020;-63
2024/03/20 05:24:42;;;;;;;28.70;19.38;;;;;;;;;;5093384;28;20940;-63
2024/03/20 05:27:08;;;;;;;31.48;18.95;;;;;;;;;;5093319;28;20024;-65
2024/03/20 05:29:34;;;;;;;32.50;19.42;;;;;;;;;;5073083;28;20032;-63
2024/03/20 05:31:59;;;;;;;27.20;18.67;;;;;;;;;;5072900;28;20068;-63
2024/03/20 05:34:25;;;;;;;31.17;17.77;;;;;;;;;;5072975;28;20177;-62
2024/03/20 05:36:50;;;;;;;27.33;18.60;;;;;;;;;;5073264;28;20020;-63
2024/03/20 05:39:15;;;;;;;33.35;19.17;;;;;;;;;;5089149;28;20094;-64
2024/03/20 05:41:41;;;;;;;35.92;19.70;;;;;;;;;;5093408;28;20026;-61
2024/03/20 05:44:06;;;;;;;31.52;18.45;;;;;;;;;;5094183;28;20350;-63
2024/03/20 05:46:33;;;;;;;28.75;20.38;;;;;;;;;;5093032;28;20063;-62
2024/03/20 05:48:58;;;;;;;28.92;20.98;;;;;;;;;;5093864;28;20035;-63
2024/03/20 05:51:24;;;;;;;34.75;19.95;;;;;;;;;;5092324;28;20039;-62
2024/03/20 05:53:49;;;;;;;30.35;21.83;;;;;;;;;;5093312;28;20114;-62
2024/03/20 05:56:15;;;;;;;31.15;21.33;;;;;;;;;;5092955;28;20040;-64
2024/03/20 05:58:42;;;;;;;26.90;21.48;;;;;;;;;;5093085;28;20024;-62
2024/03/20 06:01:08;;;;;;;28.13;21.40;;;;;;;;;;5093930;28;20020;-63
2024/03/20 06:03:34;;;;;;;28.52;20.40;;;;;;;;;;5107616;28;20354;-58
2024/03/20 06:06:00;;;;;;;30.20;20.70;;;;;;;;;;5112954;28;20016;-62
2024/03/20 06:08:26;;;;;;;29.67;21.63;;;;;;;;;;5101746;28;20023;-63
2024/03/20 06:10:52;;;;;;;31.88;21.45;;;;;;;;;;5092794;28;20032;-59
2024/03/20 06:13:17;;;;;;;32.40;21.52;;;;;;;;;;5092879;28;20035;-64
2024/03/20 06:15:43;;;;;;;35.17;22.90;;;;;;;;;;5092213;28;20107;-66
2024/03/20 06:18:08;;;;;;;38.08;23.25;;;;;;;;;;5092390;28;20027;-65
2024/03/20 06:20:34;;;;;;;38.63;22.67;;;;;;;;;;5092375;28;20022;-65
2024/03/20 06:22:59;;;;;;;34.28;22.15;;;;;;;;;;5090538;28;20081;-64
2024/03/20 06:25:25;;;;;;;35.75;22.10;;;;;;;;;;5091087;28;20039;-65
2024/03/20 06:27:51;;;;;;;36.42;21.88;;;;;;;;;;5093583;28;20030;-65
2024/03/20 06:30:16;;;;;;;30.92;22.65;;;;;;;;;;5091857;28;20101;-66
2024/03/20 06:32:42;;;;;;;36.35;22.38;;;;;;;;;;5091923;28;20104;-63
2024/03/20 06:35:11;;;;;;;38.33;23.40;;;;;;;;;;5092429;28;20419;-64
2024/03/20 06:37:37;;;;;;;35.55;21.40;;;;;;;;;;5091529;28;20028;-64
2024/03/20 06:40:03;;;;;;;32.90;21.38;;;;;;;;;;5091676;28;20020;-64
2024/03/20 06:42:29;;;;;;;29.17;19.13;;;;;;;;;;5092114;28;20055;-64
2024/03/20 06:44:55;;;;;;;29.23;18.80;;;;;;;;;;5092587;28;20060;-63
2024/03/20 06:47:20;;;;;;;29.30;20.75;;;;;;;;;;5092245;28;20039;-65
2024/03/20 06:49:47;;;;;;;30.77;19.42;;;;;;;;;;5093048;28;20446;-64
2024/03/20 06:52:16;;;;;;;23.77;18.27;;;;;;;;;;5112113;28;20218;-63
2024/03/20 06:54:42;;;;;;;25.70;18.40;;;;;;;;;;5091865;28;20406;-63
2024/03/20 06:57:10;;;;;;;25.08;16.13;;;;;;;;;;5089938;28;20047;-63
2024/03/20 06:59:36;;;;;;;20.23;16.27;;;;;;;;;;5092369;28;20024;-62
2024/03/20 07:02:02;;;;;;;21.80;16.63;;;;;;;;;;5091863;28;20031;-64
2024/03/20 07:04:27;;;;;;;24.15;15.93;;;;;;;;;;5091749;28;20342;-64
2024/03/20 07:06:53;;;;;;;21.33;15.95;;;;;;;;;;5111267;28;20031;-62
2024/03/20 07:09:18;;;;;;;24.70;15.95;;;;;;;;;;5094777;28;20450;-63
2024/03/20 07:11:44;;;;;;;21.70;13.83;;;;;;;;;;5091866;28;20101;-64
2024/03/20 07:14:09;;;;;;;23.23;14.82;;;;;;;;;;5092169;28;20263;-63
2024/03/20 07:16:35;;;;;;;22.48;13.77;;;;;;;;;;5091906;28;20437;-63
2024/03/20 07:19:00;;;;;;;21.05;13.60;;;;;;;;;;5091992;28;20036;-64
2024/03/20 07:21:26;;;;;;;23.60;13.60;;;;;;;;;;5092167;28;20028;-64
2024/03/20 07:23:57;;;;;;;20.60;12.50;;;;;;;;;;5091637;28;20272;-63
2024/03/20 07:26:23;;;;;;;18.85;12.00;;;;;;;;;;5092269;28;20051;-65
2024/03/20 07:28:48;;;;;;;20.08;12.07;;;;;;;;;;5092268;28;20059;-67
2024/03/20 07:31:13;;;;;;;24.30;11.63;;;;;;;;;;5094186;28;20032;-65
2024/03/20 07:33:39;;;;;;;20.08;10.98;;;;;;;;;;5095783;28;20707;-63
2024/03/20 07:36:04;;;;;;;18.35;11.05;;;;;;;;;;5102300;28;20024;-62
2024/03/20 07:38:30;;;;;;;19.70;9.68;;;;;;;;;;5106040;28;20420;-62
2024/03/20 07:40:55;;;;;;;19.33;10.38;;;;;;;;;;5090540;28;20062;-62
2024/03/20 07:43:21;;;;;;;15.73;9.60;;;;;;;;;;5074215;28;20032;-63
2024/03/20 07:45:47;;;;;;;18.45;10.13;;;;;;;;;;5074813;28;20028;-64
2024/03/20 07:48:12;;;;;;;16.33;10.10;;;;;;;;;;5075170;28;20036;-64
2024/03/20 07:50:38;;;;;;;16.25;9.45;;;;;;;;;;5074950;28;20036;-64
2024/03/20 07:53:05;;;;;;;22.67;11.45;;;;;;;;;;5080907;28;20051;-62
2024/03/20 07:55:31;;;;;;;20.80;11.43;;;;;;;;;;5095870;28;20435;-63
2024/03/20 07:57:56;;;;;;;26.92;11.57;;;;;;;;;;5095163;28;20036;-63
2024/03/20 08:00:28;;;;;;;22.73;11.67;;;;;;;;;;5095162;28;20024;-63
2024/03/20 08:02:54;;;;;;;22.30;11.00;;;;;;;;;;5113816;28;20270;-63
2024/03/20 08:05:19;;;;;;;20.95;11.32;;;;;;;;;;5115601;28;20024;-64
2024/03/20 08:07:45;;;;;;;22.33;12.13;;;;;;;;;;5097400;28;20514;-63
2024/03/20 08:10:10;;;;;;;23.92;11.73;;;;;;;;;;5094392;28;20024;-63
2024/03/20 08:12:36;;;;;;;22.60;11.40;;;;;;;;;;5093986;28;20040;-64
2024/03/20 08:15:03;;;;;;;23.55;11.10;;;;;;;;;;5094298;28;20038;-63
2024/03/20 08:17:30;;;;;;;18.27;10.07;;;;;;;;;;5093330;28;20034;-70
2024/03/20 08:19:56;;;;;;;25.05;11.05;;;;;;;;;;5101735;28;20016;-64
2024/03/20 08:22:22;;;;;;;21.77;13.63;;;;;;;;;;5094846;28;20081;-63
2024/03/20 08:24:47;;;;;;;22.17;13.00;;;;;;;;;;5094269;28;20056;-63
2024/03/20 08:27:12;;;;;;;27.35;12.82;;;;;;;;;;5093365;28;20024;-62
2024/03/20 08:29:38;;;;;;;30.55;13.05;;;;;;;;;;5094718;28;20024;-65
2024/03/20 08:32:04;;;;;;;30.40;13.50;;;;;;;;;;5093414;28;20090;-60
2024/03/20 08:34:30;;;;;;;30.25;13.38;;;;;;;;;;5096661;28;20028;-62
2024/03/20 08:36:56;;;;;;;29.38;13.35;;;;;;;;;;5094610;28;20042;-67
2024/03/20 08:39:21;;;;;;;28.98;12.98;;;;;;;;;;5083236;28;20037;-65
2024/03/20 08:41:46;;;;;;;29.65;14.68;;;;;;;;;;5091828;28;20479;-63
2024/03/20 08:44:12;;;;;;;29.13;14.35;;;;;;;;;;5077554;28;20024;-63
2024/03/20 08:46:41;;;;;;;36.50;14.23;;;;;;;;;;5080608;28;20091;-62
2024/03/20 08:49:08;;;;;;;36.65;13.43;;;;;;;;;;5088271;28;20457;-64
2024/03/20 08:51:33;;;;;;;30.67;13.10;;;;;;;;;;5097439;28;20039;-67
2024/03/20 08:53:59;;;;;;;27.33;11.93;;;;;;;;;;5092337;28;20050;-72
2024/03/20 08:56:24;;;;;;;33.90;14.20;;;;;;;;;;5093206;28;20101;-67
2024/03/20 08:58:50;;;;;;;30.55;14.30;;;;;;;;;;5092636;28;20514;-75
2024/03/20 09:01:17;;;;;;;27.05;12.43;;;;;;;;;;5079891;28;20464;-70
2024/03/20 09:03:42;;;;;;;30.10;12.40;;;;;;;;;;5093454;28;20153;-68
2024/03/20 09:06:08;;;;;;;23.83;11.30;;;;;;;;;;5093144;28;20114;-66
2024/03/20 09:08:33;;;;;;;26.15;10.73;;;;;;;;;;5084769;28;20328;-65
2024/03/20 09:10:58;;;;;;;23.23;10.70;;;;;;;;;;5085267;28;20040;-70
2024/03/20 09:13:24;;;;;;;25.70;11.90;;;;;;;;;;5093185;28;20032;-67
2024/03/20 09:15:49;;;;;;;22.17;11.52;;;;;;;;;;5098889;28;20026;-71
2024/03/20 09:18:14;;;;;;;27.95;11.95;;;;;;;;;;5110465;28;20032;-66
2024/03/20 09:20:40;;;;;;;23.42;11.93;;;;;;;;;;5092795;28;20016;-69
2024/03/20 09:23:07;;;;;;;27.98;12.00;;;;;;;;;;5092575;28;20036;-69
2024/03/20 09:25:33;;;;;;;33.20;12.70;;;;;;;;;;5093314;28;20020;-71
2024/03/20 09:28:00;;;;;;;29.67;11.65;;;;;;;;;;5094731;28;20425;-71
2024/03/20 09:30:25;;;;;;;31.05;13.35;;;;;;;;;;5092583;28;20032;-71
2024/03/20 09:32:51;;;;;;;27.20;13.80;;;;;;;;;;5093175;28;20483;-68
2024/03/20 09:35:16;;;;;;;28.17;12.68;;;;;;;;;;5094151;28;20453;-73
2024/03/20 09:37:41;;;;;;;26.98;13.20;;;;;;;;;;5092509;28;20048;-73
2024/03/20 09:40:10;;;;;;;32.78;13.65;;;;;;;;;;5092947;28;20021;-72
2024/03/20 09:42:36;;;;;;;28.27;13.95;;;;;;;;;;5092752;28;20375;-74
2024/03/20 09:45:02;;;;;;;24.23;12.55;;;;;;;;;;5093483;28;20012;-72
2024/03/20 09:47:31;;;;;;;31.70;12.93;;;;;;;;;;5092941;28;20106;-73
2024/03/20 09:49:57;;;;;;;29.90;13.05;;;;;;;;;;5099477;28;20062;-67
2024/03/20 09:52:24;;;;;;;29.42;13.70;;;;;;;;;;5111071;28;20112;-70
2024/03/20 09:54:50;;;;;;;27.65;12.77;;;;;;;;;;5090670;28;20131;-70
2024/03/20 09:57:15;;;;;;;25.65;12.90;;;;;;;;;;5095386;28;20564;-73
2024/03/20 09:59:47;;;;;;;34.42;14.73;;;;;;;;;;5105424;28;20041;-74
2024/03/20 10:02:12;;;;;;;34.03;15.52;;;;;;;;;;5102049;28;20365;-73
2024/03/20 10:04:39;;;;;;;34.75;16.65;;;;;;;;;;5095975;28;20024;-74
2024/03/20 10:07:11;;;;;;;34.25;15.82;;;;;;;;;;5092248;28;20050;-75
2024/03/20 10:09:36;;;;;;;31.48;15.57;;;;;;;;;;5091311;28;20435;-69
2024/03/20 10:12:01;;;;;;;38.72;17.17;;;;;;;;;;5091829;28;20103;-70
2024/03/20 10:14:27;;;;;;;36.38;17.85;;;;;;;;;;5090896;28;20024;-68
2024/03/20 10:16:52;;;;;;;34.40;18.10;;;;;;;;;;5091465;28;20457;-68
2024/03/20 10:19:18;;;;;;;41.13;20.08;;;;;;;;;;5100238;28;20027;-67
2024/03/20 10:21:44;;;;;;;33.42;17.92;;;;;;;;;;5101035;28;20039;-66
2024/03/20 10:24:13;;;;;;;30.35;17.05;;;;;;;;;;5090515;28;20370;-68
2024/03/20 10:26:39;;;;;;;28.08;16.27;;;;;;;;;;5098218;28;20047;-68
2024/03/20 10:29:06;;;;;;;35.72;16.08;;;;;;;;;;5112832;28;20426;-71
2024/03/20 10:31:32;;;;;;;31.15;15.25;;;;;;;;;;5112755;28;20036;-70
2024/03/20 10:33:58;;;;;;;25.42;14.48;;;;;;;;;;5112758;28;20430;-70
2024/03/20 10:36:24;;;;;;;20.60;11.60;;;;;;;;;;5112916;28;20354;-70
2024/03/20 10:38:49;;;;;;;20.45;11.70;;;;;;;;;;5111081;28;20456;-70
2024/03/20 10:41:15;;;;;;;22.58;11.93;;;;;;;;;;5109922;28;20027;-70
2024/03/20 10:43:41;;;;;;;22.83;11.80;;;;;;;;;;5111097;28;20016;-73
2024/03/20 10:46:14;;;;;;;20.90;11.85;;;;;;;;;;5111443;28;20024;-73
2024/03/20 10:48:40;;;;;;;18.52;10.18;;;;;;;;;;5102735;28;20039;-70
2024/03/20 10:51:10;;;;;;;21.45;10.57;;;;;;;;;;5092107;28;20326;-70
2024/03/20 10:53:36;;;;;;;22.10;11.43;;;;;;;;;;5091783;28;20128;-71
2024/03/20 10:56:04;;;;;;;17.75;10.85;;;;;;;;;;5091669;28;20028;-70
2024/03/20 10:58:29;;;;;;;15.07;9.73;;;;;;;;;;5092326;28;20085;-70
2024/03/20 11:00:55;;;;;;;13.85;7.60;;;;;;;;;;5092127;28;20020;-69
2024/03/20 11:03:42;;;;;;;14.85;7.00;;;;;;;;;;5109509;28;20012;-70
2024/03/20 11:06:40;;;;;;;15.70;7.10;;;;;;;;;;5111156;28;20049;-70
2024/03/20 11:09:09;;;;;;;15.10;6.25;;;;;;;;;;5096421;27;20036;-66
2024/03/20 11:11:34;;;;;;;17.65;7.68;;;;;;;;;;5109610;28;20134;-66
2024/03/20 11:14:03;;;;;;;13.88;6.88;;;;;;;;;;5115902;28;20095;-66
2024/03/20 11:16:30;;;;;;;15.68;7.18;;;;;;;;;;5116055;28;20148;-67
2024/03/20 11:19:03;;;;;;;19.08;7.00;;;;;;;;;;5115202;28;20108;-68
2024/03/20 11:21:29;;;;;;;15.30;6.95;;;;;;;;;;5116170;28;20030;-66
2024/03/20 11:23:54;;;;;;;15.40;6.70;;;;;;;;;;5101364;28;20036;-67
2024/03/20 11:26:20;;;;;;;14.25;7.75;;;;;;;;;;5108675;28;20030;-66
2024/03/20 11:28:47;;;;;;;15.45;7.30;;;;;;;;;;5115819;28;20331;-66
2024/03/20 11:31:13;;;;;;;21.75;7.63;;;;;;;;;;5115818;28;20098;-66
2024/03/20 11:33:42;;;;;;;16.20;8.27;;;;;;;;;;5115583;28;20430;-67
2024/03/20 11:36:11;;;;;;;17.05;7.45;;;;;;;;;;5109077;28;20023;-67
2024/03/20 11:38:38;;;;;;;15.52;8.02;;;;;;;;;;5105442;28;20020;-65
2024/03/20 11:41:04;;;;;;;18.60;8.80;;;;;;;;;;5094373;28;20051;-65
2024/03/20 11:43:31;;;;;;;22.00;10.73;;;;;;;;;;5094281;28;20100;-66
2024/03/20 11:45:57;;;;;;;24.13;11.07;;;;;;;;;;5094579;28;20032;-69
2024/03/20 11:48:23;;;;;;;18.05;8.50;;;;;;;;;;5095373;28;20023;-68
2024/03/20 11:50:48;;;;;;;20.63;10.27;;;;;;;;;;5094612;28;20039;-65
2024/03/20 11:53:14;;;;;;;22.98;10.25;;;;;;;;;;5093862;28;20052;-74
2024/03/20 11:55:41;;;;;;;25.98;11.32;;;;;;;;;;5110902;28;20027;-67
2024/03/20 11:58:11;;;;;;;24.63;11.70;;;;;;;;;;5082165;28;20446;-62
2024/03/20 12:00:37;;;;;;;23.98;10.43;;;;;;;;;;5090456;28;20028;-64
2024/03/20 12:03:02;;;;;;;16.80;10.05;;;;;;;;;;5093238;28;20021;-67
2024/03/20 12:05:28;;;;;;;20.75;10.68;;;;;;;;;;5095786;28;20041;-68
2024/03/20 12:07:57;;;;;;;20.90;11.15;;;;;;;;;;5094809;28;20028;-66
2024/03/20 12:10:30;;;;;;;19.58;10.52;;;;;;;;;;5093494;28;20016;-64
2024/03/20 12:12:55;;;;;;;22.00;9.93;;;;;;;;;;5093186;28;20036;-63
2024/03/20 12:15:21;;;;;;;19.50;10.35;;;;;;;;;;5093248;28;20041;-64
2024/03/20 12:17:47;;;;;;;17.70;9.93;;;;;;;;;;5094110;28;20039;-63
2024/03/20 12:20:15;;;;;;;26.85;10.65;;;;;;;;;;5093036;28;20024;-62
2024/03/20 12:22:41;;;;;;;23.85;10.80;;;;;;;;;;5094666;28;20023;-63
2024/03/20 12:25:08;;;;;;;21.27;10.63;;;;;;;;;;5093058;28;20034;-62
2024/03/20 12:27:33;;;;;;;21.13;11.13;;;;;;;;;;5086236;28;20047;-63
2024/03/20 12:29:59;;;;;;;25.73;11.05;;;;;;;;;;5079881;28;20024;-62
2024/03/20 12:32:24;;;;;;;23.73;11.15;;;;;;;;;;5080938;28;20036;-62
2024/03/20 12:34:52;;;;;;;24.58;11.65;;;;;;;;;;5089788;28;20028;-63
2024/03/20 12:37:19;;;;;;;25.25;12.23;;;;;;;;;;5086357;28;20020;-65
2024/03/20 12:39:45;;;;;;;22.10;11.13;;;;;;;;;;5076889;28;20189;-64
2024/03/20 12:42:10;;;;;;;32.28;12.35;;;;;;;;;;5077994;28;20091;-62
2024/03/20 12:44:36;;;;;;;26.33;12.10;;;;;;;;;;5093585;28;20028;-63
2024/03/20 12:47:02;;;;;;;23.92;11.30;;;;;;;;;;5104060;28;20333;-63
2024/03/20 12:49:27;;;;;;;23.25;11.68;;;;;;;;;;5114240;28;20327;-62
2024/03/20 12:51:54;;;;;;;25.00;12.45;;;;;;;;;;5112558;28;20198;-63
2024/03/20 12:54:25;;;;;;;29.20;12.90;;;;;;;;;;5095780;28;20044;-69
2024/03/20 12:56:51;;;;;;;22.95;12.02;;;;;;;;;;5093344;28;20024;-66
2024/03/20 12:59:16;;;;;;;28.15;11.48;;;;;;;;;;5093294;28;20434;-65
2024/03/20 13:01:42;;;;;;;25.23;12.73;;;;;;;;;;5093773;28;20020;-66
2024/03/20 13:04:11;;;;;;;26.70;13.15;;;;;;;;;;5091530;28;20323;-63
2024/03/20 13:06:37;;;;;;;28.02;12.68;;;;;;;;;;5093580;28;20102;-60
2024/03/20 13:09:10;;;;;;;21.05;11.95;;;;;;;;;;5092914;28;20111;-54
2024/03/20 13:11:39;;;;;;;22.25;11.63;;;;;;;;;;5093283;28;20081;-59
2024/03/20 13:14:05;;;;;;;25.65;11.75;;;;;;;;;;5097809;28;20453;-65
2024/03/20 13:16:31;;;;;;;24.58;10.60;;;;;;;;;;5099416;28;20062;-62
2024/03/20 13:18:58;;;;;;;22.55;11.73;;;;;;;;;;5092897;28;20024;-63
2024/03/20 13:21:26;;;;;;;27.90;11.65;;;;;;;;;;5093188;28;20047;-61
2024/03/20 13:24:06;;;;;;;27.95;12.10;;;;;;;;;;5094367;28;20468;-62
2024/03/20 13:26:34;;;;;;;23.13;11.77;;;;;;;;;;5093208;28;20073;-62
2024/03/20 13:29:00;;;;;;;21.00;11.63;;;;;;;;;;5092394;28;20111;-62
2024/03/20 13:31:27;;;;;;;21.38;11.52;;;;;;;;;;5091968;28;20399;-58
2024/03/20 13:33:53;;;;;;;23.60;11.50;;;;;;;;;;5093512;28;20028;-60
2024/03/20 13:36:18;;;;;;;18.08;10.57;;;;;;;;;;5092659;28;20408;-64
2024/03/20 13:38:56;;;;;;;23.73;10.75;;;;;;;;;;5091913;28;20021;-63
2024/03/20 13:43:53;;;;;;;21.50;10.95;;;;;;;;;;5092761;28;20016;-62
2024/03/20 13:46:19;;;;;;;21.80;10.95;;;;;;;;;;5092553;28;20020;-63
2024/03/20 13:48:44;;;;;;;24.67;10.23;;;;;;;;;;5092414;28;20833;-64
2024/03/20 13:51:20;;;;;;;18.42;10.95;;;;;;;;;;5092280;28;20047;-63
2024/03/20 13:53:45;;;;;;;;;;;;;;;;;;5093444;28;20147;-64
2024/03/20 13:56:10;;;;;;;;;;;;;;;;;;5091301;28;19999;-63
2024/03/20 13:58:36;;;;;;;24.53;10.70;;;;;;;;;;5091166;28;20353;-62
2024/03/20 14:01:01;;;;;;;24.88;11.10;;;;;;;;;;5089848;28;20028;-63
2024/03/20 14:03:27;;;;;;;28.45;11.57;;;;;;;;;;5091135;28;20081;-63
2024/03/20 14:05:52;;;;;;;25.48;11.48;;;;;;;;;;5091266;28;20050;-62
2024/03/20 14:08:18;;;;;;;27.65;10.77;;;;;;;;;;5090465;28;20035;-63
2024/03/20 14:10:45;;;;;;;23.67;11.20;;;;;;;;;;5090441;28;20036;-65
2024/03/20 14:13:13;;;;;;;25.98;11.73;;;;;;;;;;5091682;28;20024;-63
2024/03/20 14:15:38;;;;;;;24.52;10.88;;;;;;;;;;5089792;28;20401;-62